TEGELER SEGEL-CLUB e.V.
Segeln seit 1901 im Norden Berlins
tsc stander

Auf dieser Seite finden Sie die Wetterübersicht für ein bestimmtes Einzeldatum. Beim ersten Aufruf der Seite wird immer das aktuelle Datum angezeigt, danach kann jeder beliebige Tag ausgewählt werden (z.B. der 24. Dezember). Für diesen Tag wird dann das Wetter aller vergangenen Jahre für diesen Tag seit Beginn der Aufzeichnungen im TSC 2005 angezeigt (also der 24.12.2005, 24.12.2006, ...). Jahre ohne Wetteraufzeichnungen werden nicht angezeigt, fehlende einzelne Messwerte werden mit (---) dargestellt. Das Wetter wird anhand der Lufttemperatur (Minumum, Maximum, Tagesmittel), sowie der Tagesmittelwerte für die Wassertemperatur, die Windgeschwindigkeit und den Luftdruck dargestellt.

Ausgewälter Tag: 21.06.


Der wärmste 21.06. war im Jahr 2021 mit 24.6°C Durchschnittstemperatur.
Der kälteste 21.06. war im Jahr 2014 mit 13.0°C Durchschnittstemperatur.
Die maximale Temperatur gab es am 21.06.2021 mit 29.6°C.
Die minimale Temperatur gab es am 21.06.2010 mit 8.5°C.

Tabellarische Darstellung aller Werte:

  T_Luft T_Wasser Wind Luftdruck
  ∅  in °C min in °C max in °C ∅  in °C ∅  in km/h ∅  in hPa
 
heute: (21.06.2024) 21,0 16,6 26,3 22,0 8,9 1.007,9
 
21.06.2024 21,0 16,6 26,3 22,0 8,9 1.007,9
21.06.2023 23,1 17,3 28,4 22,9 8,9 1.008,9
21.06.2022 18,0 11,1 24,7 21,8 9,6 1.006,6
21.06.2021 24,6 20,0 29,6 26,0 10,0 999,8
21.06.2020 18,1 13,8 23,5 21,1 10,2 1.011,6
21.06.2019 19,8 14,8 24,3 24,8 8,1 1.010,9
21.06.2018 16,5 10,7 25,5 23,0 15,0 1.006,3
21.06.2017 18,4 12,0 23,4 22,1 7,2 1.010,6
21.06.2016 18,2 15,0 23,1 21,5 9,3 1.013,0
21.06.2015 14,9 10,6 18,5 19,0 6,2 1.008,3
21.06.2014 13,0 11,2 15,9 19,4 15,2 1.007,7
21.06.2013 21,4 17,5 24,6 --- 15,9 1.005,8
21.06.2012 14,9 13,3 16,0 20,3 5,0 1.006,9
21.06.2011 17,2 11,4 22,5 20,6 6,4 1.014,3
21.06.2010 13,5 8,5 18,4 20,3 9,0 1.020,4
21.06.2009 14,1 9,9 19,3 20,3 8,2 1.022,4
21.06.2008 16,6 12,4 21,5 20,6 8,0 1.023,4
21.06.2007 17,9 13,2 22,8 23,1 10,5 1.013,6
21.06.2006 22,2 16,4 27,2 24,4 9,7 1.016,6
 
∅ alle Jahre: 18,1 13,5 22,9 20,7 9,5 1.011,3

 
 

 

 

Wir nutzen Cookies auf unserer Website. Einige von ihnen sind essenziell für den Betrieb der Seite, während andere uns helfen, diese Website und die Nutzererfahrung zu verbessern (Tracking Cookies). Sie können selbst entscheiden, ob Sie die Cookies zulassen möchten. Bitte beachten Sie, dass bei einer Ablehnung womöglich nicht mehr alle Funktionalitäten der Seite zur Verfügung stehen.